createdAt,value
2019-05-17T00:01:00.793Z,25.72
2019-05-17T00:03:29.489Z,26.40
2019-05-17T00:05:51.420Z,24.02
2019-05-17T00:08:12.914Z,23.73
2019-05-17T00:10:34.430Z,22.82
2019-05-17T00:12:56.361Z,22.48
2019-05-17T00:15:18.053Z,22.35
2019-05-17T00:17:39.488Z,24.67
2019-05-17T00:20:00.824Z,25.02
2019-05-17T00:22:41.974Z,21.68
2019-05-17T00:25:07.377Z,23.50
2019-05-17T00:27:29.231Z,21.82
2019-05-17T00:29:50.661Z,23.73
2019-05-17T00:32:31.890Z,21.87
2019-05-17T00:34:53.320Z,23.02
2019-05-17T00:37:14.706Z,24.00
2019-05-17T00:39:36.765Z,24.12
2019-05-17T00:41:58.326Z,23.87
2019-05-17T00:44:19.716Z,21.70
2019-05-17T00:46:41.102Z,23.32
2019-05-17T00:49:02.745Z,23.35
2019-05-17T00:51:27.245Z,25.77
2019-05-17T00:53:48.428Z,23.98
2019-05-17T00:56:29.785Z,23.15
2019-05-17T00:58:51.061Z,24.43
2019-05-17T01:01:12.361Z,23.62
2019-05-17T01:03:33.648Z,24.95
2019-05-17T01:05:56.752Z,26.52
2019-05-17T01:08:18.470Z,22.95
2019-05-17T01:10:40.063Z,21.37
2019-05-17T01:13:01.383Z,26.23
2019-05-17T01:15:22.966Z,23.27
2019-05-17T01:17:47.145Z,24.55
2019-05-17T01:20:08.385Z,22.15
2019-05-17T01:22:29.722Z,22.82
2019-05-17T01:24:51.331Z,22.65
2019-05-17T01:27:12.744Z,24.20
2019-05-17T01:29:36.165Z,22.98
2019-05-17T01:31:57.373Z,26.02
2019-05-17T01:34:18.707Z,23.65
2019-05-17T01:36:40.079Z,24.18
2019-05-17T01:39:14.103Z,22.95
2019-05-17T01:41:26.676Z,22.75
2019-05-17T01:43:47.782Z,23.18
2019-05-17T01:46:09.065Z,23.38
2019-05-17T01:48:30.486Z,22.13
2019-05-17T01:50:52.256Z,26.00
2019-05-17T01:53:13.739Z,24.37
2019-05-17T01:55:37.204Z,24.57
2019-05-17T01:57:58.427Z,23.98
2019-05-17T02:00:19.922Z,26.55
2019-05-17T02:02:43.357Z,24.25
2019-05-17T02:05:06.432Z,25.37
2019-05-17T02:07:28.242Z,24.93
2019-05-17T02:10:09.490Z,27.20
2019-05-17T02:12:30.887Z,25.27
2019-05-17T02:14:52.293Z,24.15
2019-05-17T02:17:13.627Z,25.57
2019-05-17T02:19:37.026Z,24.35
2019-05-17T02:21:58.347Z,26.12
2019-05-17T02:24:19.738Z,24.63
2019-05-17T02:26:41.149Z,23.60
2019-05-17T02:29:02.533Z,25.05
2019-05-17T02:31:24.769Z,25.30
2019-05-17T02:33:46.371Z,26.25
2019-05-17T02:36:08.026Z,23.90
2019-05-17T02:38:32.849Z,26.52
2019-05-17T02:40:53.517Z,24.90
2019-05-17T02:43:15.227Z,25.88
2019-05-17T02:45:36.631Z,24.85
2019-05-17T02:47:58.028Z,24.30
2019-05-17T02:50:19.306Z,23.47
2019-05-17T02:52:43.836Z,23.52
2019-05-17T02:55:04.433Z,25.77
2019-05-17T02:57:25.803Z,25.43
2019-05-17T02:59:47.251Z,24.18
2019-05-17T03:02:08.632Z,26.12
2019-05-17T03:04:32.489Z,25.43
2019-05-17T03:06:53.529Z,24.20
2019-05-17T03:09:14.935Z,24.52
2019-05-17T03:11:36.322Z,24.20
2019-05-17T03:13:57.731Z,23.62
2019-05-17T03:16:19.130Z,22.15
2019-05-17T03:18:43.642Z,22.07
2019-05-17T03:21:04.186Z,22.22
2019-05-17T03:23:26.014Z,21.20
2019-05-17T03:25:47.702Z,22.48
2019-05-17T03:28:09.007Z,23.30
2019-05-17T03:30:35.499Z,21.73
2019-05-17T03:32:56.256Z,22.15
2019-05-17T03:35:18.060Z,21.48
2019-05-17T03:37:43.429Z,21.40
2019-05-17T03:40:21.666Z,22.98
2019-05-17T03:42:27.915Z,22.25
2019-05-17T03:44:49.213Z,25.25
2019-05-17T03:47:13.134Z,24.63
2019-05-17T03:49:33.815Z,23.98
2019-05-17T03:51:55.206Z,24.00
2019-05-17T03:54:16.689Z,23.77
2019-05-17T03:56:38.129Z,26.48
2019-05-17T03:58:59.518Z,26.52
2019-05-17T04:01:23.213Z,25.27
2019-05-17T04:03:44.248Z,21.10
2019-05-17T04:06:05.838Z,22.42
2019-05-17T04:08:27.106Z,27.32
2019-05-17T04:10:48.410Z,25.20
2019-05-17T04:13:12.704Z,23.52
2019-05-17T04:15:33.086Z,25.52
2019-05-17T04:18:14.746Z,26.97
2019-05-17T04:20:36.150Z,24.92
2019-05-17T04:23:06.698Z,25.85
2019-05-17T04:25:28.376Z,26.80
2019-05-17T04:27:53.370Z,25.68
2019-05-17T04:30:13.369Z,19.40
2019-05-17T04:32:35.282Z,23.18
2019-05-17T04:34:56.562Z,25.17
2019-05-17T04:37:18.159Z,23.32
2019-05-17T04:39:39.480Z,21.93
2019-05-17T04:42:03.726Z,24.20
2019-05-17T04:44:24.143Z,24.65
2019-05-17T04:46:45.459Z,23.83
2019-05-17T04:49:06.952Z,23.25
2019-05-17T04:51:28.537Z,24.75
2019-05-17T04:53:52.914Z,21.57
2019-05-17T04:56:14.006Z,20.45
2019-05-17T04:58:36.162Z,24.85
2019-05-17T05:00:57.466Z,22.20
2019-05-17T05:03:18.955Z,18.80
2019-05-17T05:05:42.785Z,21.70
2019-05-17T05:08:03.692Z,26.05
2019-05-17T05:10:25.036Z,22.73
2019-05-17T05:12:46.426Z,25.15
2019-05-17T05:15:08.794Z,23.77
2019-05-17T05:17:32.688Z,21.95
2019-05-17T05:19:53.338Z,22.45
2019-05-17T05:22:17.510Z,19.73
2019-05-17T05:24:38.299Z,22.35
2019-05-17T05:26:59.682Z,23.98
2019-05-17T05:29:21.633Z,21.57
2019-05-17T05:31:43.455Z,22.93
2019-05-17T05:34:04.985Z,21.68
2019-05-17T05:36:26.458Z,18.95
2019-05-17T05:38:48.366Z,20.02
2019-05-17T05:41:12.072Z,18.23
2019-05-17T05:43:33.225Z,20.37
2019-05-17T05:45:54.532Z,20.00
2019-05-17T05:48:16.026Z,19.65
2019-05-17T05:50:37.629Z,19.30
2019-05-17T05:53:01.782Z,18.23
2019-05-17T05:55:23.399Z,16.47
2019-05-17T05:57:45.163Z,15.55
2019-05-17T06:00:06.784Z,15.68
2019-05-17T06:02:28.189Z,14.85
2019-05-17T06:04:51.875Z,15.55
2019-05-17T06:07:13.141Z,11.22
2019-05-17T06:09:34.525Z,14.75
2019-05-17T06:11:56.006Z,14.80
2019-05-17T06:14:17.550Z,14.90
2019-05-17T06:16:39.131Z,15.68
2019-05-17T06:19:02.369Z,16.00
2019-05-17T06:21:38.270Z,15.97
2019-05-17T06:24:02.412Z,16.77
2019-05-17T06:26:23.743Z,15.88
2019-05-17T06:28:45.765Z,15.18
2019-05-17T06:31:07.438Z,15.32
2019-05-17T06:33:33.806Z,15.30
2019-05-17T06:35:52.608Z,16.50
2019-05-17T06:38:14.328Z,14.80
2019-05-17T06:40:35.730Z,14.30
2019-05-17T06:42:57.230Z,14.28
2019-05-17T06:45:18.814Z,14.87
2019-05-17T06:48:02.351Z,13.03
2019-05-17T06:50:23.715Z,13.68
2019-05-17T06:52:45.341Z,12.58
2019-05-17T06:55:06.882Z,11.80
2019-05-17T06:57:28.819Z,12.95
2019-05-17T06:59:50.204Z,12.37
2019-05-17T07:02:11.962Z,10.20
2019-05-17T07:04:33.424Z,10.28
2019-05-17T07:07:13.758Z,11.45
2019-05-17T07:09:36.106Z,9.85
2019-05-17T07:11:59.599Z,9.35
2019-05-17T07:14:21.261Z,10.32
2019-05-17T07:16:42.988Z,10.00
2019-05-17T07:19:04.277Z,10.82
2019-05-17T07:21:25.691Z,9.53
2019-05-17T07:23:46.973Z,10.65
2019-05-17T07:26:11.363Z,9.98
2019-05-17T07:28:31.785Z,10.20
2019-05-17T07:30:53.195Z,9.43
2019-05-17T07:33:14.793Z,10.18
2019-05-17T07:35:36.409Z,9.83
2019-05-17T07:37:59.570Z,9.78
2019-05-17T07:40:20.985Z,9.88
2019-05-17T07:42:42.385Z,9.95
2019-05-17T07:45:06.211Z,9.78
2019-05-17T07:47:29.463Z,9.08
2019-05-17T07:49:50.702Z,9.85
2019-05-17T07:52:12.209Z,11.18
2019-05-17T07:54:33.943Z,8.40
2019-05-17T07:56:55.370Z,10.58
2019-05-17T07:59:19.942Z,12.47
2019-05-17T08:01:41.774Z,10.40
2019-05-17T08:04:03.210Z,9.08
2019-05-17T08:06:24.486Z,14.05
2019-05-17T08:08:45.867Z,9.90
2019-05-17T08:11:07.484Z,8.88
2019-05-17T08:13:31.358Z,10.75
2019-05-17T08:15:52.521Z,10.93
2019-05-17T08:18:14.081Z,10.00
2019-05-17T08:20:35.478Z,10.85
2019-05-17T08:22:59.444Z,10.53
2019-05-17T08:25:21.208Z,9.70
2019-05-17T08:27:42.479Z,9.48
2019-05-17T08:30:05.365Z,9.55
2019-05-17T08:32:26.796Z,11.68
2019-05-17T08:34:49.533Z,9.45
2019-05-17T08:37:11.225Z,10.32
2019-05-17T08:39:32.838Z,10.13
2019-05-17T08:41:54.229Z,10.03
2019-05-17T08:44:15.642Z,9.43
2019-05-17T08:46:39.402Z,10.28
2019-05-17T08:49:00.485Z,11.27
2019-05-17T08:51:22.004Z,14.03
2019-05-17T08:53:43.303Z,12.00
2019-05-17T08:56:04.586Z,12.13
2019-05-17T08:58:25.873Z,12.33
2019-05-17T09:00:50.605Z,12.30
2019-05-17T09:03:12.303Z,11.20
2019-05-17T09:05:33.591Z,11.50
2019-05-17T09:07:55.102Z,11.40
2019-05-17T09:10:17.098Z,11.18
2019-05-17T09:12:40.576Z,9.83
2019-05-17T09:15:01.721Z,10.05
2019-05-17T09:17:23.022Z,9.55
2019-05-17T09:19:44.494Z,10.48
2019-05-17T09:22:06.145Z,10.18
2019-05-17T09:24:27.427Z,9.68
2019-05-17T09:26:49.331Z,9.13
2019-05-17T09:29:10.947Z,9.23
2019-05-17T09:31:32.572Z,8.73
2019-05-17T09:33:54.047Z,9.58
2019-05-17T09:36:15.872Z,8.33
2019-05-17T09:38:37.145Z,8.60
2019-05-17T09:40:59.961Z,9.35
2019-05-17T09:43:22.011Z,9.10
2019-05-17T09:45:43.403Z,8.98
2019-05-17T09:48:04.716Z,8.53
2019-05-17T09:50:26.231Z,8.73
2019-05-17T09:52:49.436Z,8.78
2019-05-17T09:55:12.741Z,8.57
2019-05-17T09:57:34.387Z,9.30
2019-05-17T09:59:56.060Z,9.10
2019-05-17T10:02:17.383Z,9.08
2019-05-17T10:04:39.511Z,9.28
2019-05-17T10:07:01.388Z,8.43
2019-05-17T10:09:22.888Z,8.70
2019-05-17T10:11:44.513Z,8.08
2019-05-17T10:14:05.993Z,8.50
2019-05-17T10:16:27.537Z,8.58
2019-05-17T10:18:48.918Z,9.08
2019-05-17T10:21:10.632Z,8.25
2019-05-17T10:23:32.193Z,7.25
2019-05-17T10:25:53.866Z,7.30
2019-05-17T10:28:15.244Z,7.70
2019-05-17T10:30:36.526Z,7.12
2019-05-17T10:32:59.995Z,7.35
2019-05-17T10:35:21.072Z,7.30
2019-05-17T10:37:43.314Z,7.58
2019-05-17T10:40:05.624Z,7.58
2019-05-17T10:42:26.942Z,7.65
2019-05-17T10:44:51.404Z,7.47
2019-05-17T10:47:11.326Z,6.90
2019-05-17T10:49:32.870Z,6.58
2019-05-17T10:51:54.465Z,7.67
2019-05-17T10:54:16.059Z,7.53
2019-05-17T10:56:37.396Z,7.17
2019-05-17T10:59:00.099Z,7.17
2019-05-17T11:01:21.766Z,7.75
2019-05-17T11:03:43.380Z,7.40
2019-05-17T11:06:04.985Z,7.60
2019-05-17T11:08:26.581Z,7.58
2019-05-17T11:10:50.054Z,6.62
2019-05-17T11:13:11.101Z,7.45
2019-05-17T11:15:52.286Z,6.50
2019-05-17T11:18:13.764Z,7.00
2019-05-17T11:20:35.280Z,7.37
2019-05-17T11:22:56.813Z,7.37
2019-05-17T11:25:18.320Z,7.30
2019-05-17T11:27:39.794Z,6.67
2019-05-17T11:30:01.474Z,7.92
2019-05-17T11:32:22.967Z,6.75
2019-05-17T11:34:44.378Z,7.15
2019-05-17T11:37:05.909Z,7.17
2019-05-17T11:39:28.388Z,7.67
2019-05-17T11:41:49.646Z,6.85
2019-05-17T11:44:11.422Z,6.90
2019-05-17T11:46:36.152Z,7.53
2019-05-17T11:48:56.108Z,6.80
2019-05-17T11:51:17.407Z,6.97
2019-05-17T11:53:38.795Z,5.75
2019-05-17T11:56:00.398Z,6.10
2019-05-17T11:58:21.722Z,5.85
2019-05-17T12:00:45.430Z,5.72
2019-05-17T12:03:06.719Z,6.15
2019-05-17T12:05:28.151Z,5.40
2019-05-17T12:07:55.651Z,5.72
2019-05-17T12:10:17.050Z,6.10
2019-05-17T12:12:38.582Z,5.90
2019-05-17T12:14:59.901Z,5.67
2019-05-17T12:17:21.449Z,4.95
2019-05-17T12:19:42.851Z,5.97
2019-05-17T12:22:04.720Z,5.20
2019-05-17T12:24:26.316Z,4.87
2019-05-17T12:26:47.847Z,6.60
2019-05-17T12:29:09.228Z,7.00
2019-05-17T12:31:30.707Z,7.42
2019-05-17T12:33:52.372Z,6.10
2019-05-17T12:36:14.091Z,7.05
2019-05-17T12:38:35.430Z,7.10
2019-05-17T12:40:57.508Z,6.92
2019-05-17T12:43:18.906Z,7.05
2019-05-17T12:45:40.700Z,8.85
2019-05-17T12:48:02.141Z,8.38
2019-05-17T12:50:23.427Z,9.68
2019-05-17T12:52:45.028Z,8.73
2019-05-17T12:55:06.649Z,10.28
2019-05-17T12:57:47.978Z,9.88
2019-05-17T13:00:10.593Z,8.20
2019-05-17T13:02:31.906Z,8.68
2019-05-17T13:04:53.436Z,9.55
2019-05-17T13:07:14.948Z,9.00
2019-05-17T13:09:36.541Z,8.80
2019-05-17T13:11:58.039Z,9.05
2019-05-17T13:14:19.588Z,8.28
2019-05-17T13:16:41.081Z,8.35
2019-05-17T13:19:02.455Z,7.85
2019-05-17T13:21:24.288Z,7.40
2019-05-17T13:23:45.787Z,7.70
2019-05-17T13:26:07.730Z,6.85
2019-05-17T13:28:29.048Z,7.17
2019-05-17T13:30:50.574Z,7.87
2019-05-17T13:33:11.986Z,6.62
2019-05-17T13:35:33.432Z,6.87
2019-05-17T13:37:54.821Z,7.15
2019-05-17T13:40:16.212Z,6.80
2019-05-17T13:42:37.793Z,7.12
2019-05-17T13:44:59.291Z,7.03
2019-05-17T13:47:20.762Z,7.20
2019-05-17T13:49:42.383Z,6.22
2019-05-17T13:52:03.758Z,6.62
2019-05-17T13:54:25.425Z,5.75
2019-05-17T13:56:46.803Z,6.42
2019-05-17T13:59:08.438Z,6.60
2019-05-17T14:01:30.881Z,6.08
2019-05-17T14:03:52.331Z,5.55
2019-05-17T14:06:13.665Z,6.00
2019-05-17T14:08:35.105Z,5.67
2019-05-17T14:10:56.592Z,6.40
2019-05-17T14:13:17.977Z,5.97
2019-05-17T14:15:39.639Z,7.00
2019-05-17T14:18:01.016Z,5.97
2019-05-17T14:20:22.510Z,7.40
2019-05-17T14:22:43.873Z,7.58
2019-05-17T14:25:06.208Z,7.22
2019-05-17T14:27:27.744Z,7.50
2019-05-17T14:29:49.257Z,7.70
2019-05-17T14:32:10.939Z,7.83
2019-05-17T14:34:32.567Z,8.83
2019-05-17T14:36:54.222Z,8.60
2019-05-17T14:39:15.711Z,8.85
2019-05-17T14:41:37.179Z,8.15
2019-05-17T14:43:59.711Z,8.78
2019-05-17T14:46:21.210Z,8.08
2019-05-17T14:48:42.578Z,8.08
2019-05-17T14:51:04.010Z,9.20
2019-05-17T14:53:25.514Z,8.35
2019-05-17T14:55:47.020Z,8.40
2019-05-17T14:58:08.571Z,8.38
2019-05-17T15:00:35.955Z,8.45
2019-05-17T15:02:57.983Z,9.00
2019-05-17T15:05:19.647Z,9.10
2019-05-17T15:07:41.043Z,7.83
2019-05-17T15:10:04.946Z,8.38
2019-05-17T15:12:28.657Z,7.22
2019-05-17T15:14:49.610Z,8.07
2019-05-17T15:17:11.003Z,7.92
2019-05-17T15:19:32.417Z,7.87
2019-05-17T15:21:53.906Z,8.00
2019-05-17T15:24:15.433Z,7.15
2019-05-17T15:26:36.845Z,6.30
2019-05-17T15:28:58.349Z,7.33
2019-05-17T15:31:19.934Z,7.58
2019-05-17T15:33:41.481Z,7.95
2019-05-17T15:36:02.939Z,8.08
2019-05-17T15:38:24.390Z,7.62
2019-05-17T15:40:46.075Z,7.17
2019-05-17T15:43:07.659Z,7.40
2019-05-17T15:45:29.490Z,7.60
2019-05-17T15:47:50.828Z,7.95
2019-05-17T15:50:14.230Z,8.05
2019-05-17T15:52:35.717Z,7.22
2019-05-17T15:54:57.371Z,7.53
2019-05-17T15:57:19.348Z,7.60
2019-05-17T15:59:41.046Z,8.10
2019-05-17T16:02:16.400Z,7.47
2019-05-17T16:04:38.139Z,7.60
2019-05-17T16:06:59.636Z,7.97
2019-05-17T16:09:21.071Z,7.33
2019-05-17T16:11:42.473Z,9.45
2019-05-17T16:14:04.181Z,8.65
2019-05-17T16:16:25.700Z,9.85
2019-05-17T16:18:47.657Z,8.98
2019-05-17T16:21:09.049Z,9.60
2019-05-17T16:23:30.470Z,9.88
2019-05-17T16:25:51.868Z,9.13
2019-05-17T16:28:13.498Z,9.20
2019-05-17T16:30:34.905Z,9.20
2019-05-17T16:32:56.198Z,9.23
2019-05-17T16:35:17.686Z,8.73
2019-05-17T16:37:39.131Z,9.90
2019-05-17T16:40:20.270Z,9.33
2019-05-17T16:42:41.898Z,9.75
2019-05-17T16:45:05.215Z,11.00
2019-05-17T16:47:26.865Z,10.27
2019-05-17T16:49:48.379Z,9.98
2019-05-17T16:52:29.714Z,10.20
2019-05-17T16:54:51.241Z,9.90
2019-05-17T16:57:12.775Z,10.10
2019-05-17T16:59:34.242Z,10.82
2019-05-17T17:01:55.725Z,11.73
2019-05-17T17:04:17.211Z,11.57
2019-05-17T17:06:38.597Z,10.85
2019-05-17T17:09:00.270Z,12.98
2019-05-17T17:11:21.551Z,21.27
2019-05-17T17:13:42.929Z,20.85
2019-05-17T17:16:04.371Z,12.50
2019-05-17T17:18:25.782Z,10.88
2019-05-17T17:20:47.404Z,10.45
2019-05-17T17:23:09.057Z,10.93
2019-05-17T17:25:30.845Z,10.15
2019-05-17T17:27:52.439Z,10.13
2019-05-17T17:30:13.974Z,11.57
2019-05-17T17:32:35.565Z,10.13
2019-05-17T17:34:56.850Z,10.55
2019-05-17T17:37:18.186Z,10.53
2019-05-17T17:39:39.524Z,11.15
2019-05-17T17:42:00.985Z,11.57
2019-05-17T17:44:22.310Z,11.55
2019-05-17T17:46:43.946Z,12.10
2019-05-17T17:49:05.446Z,11.25
2019-05-17T17:51:26.897Z,12.55
2019-05-17T17:53:48.300Z,11.68
2019-05-17T17:56:13.006Z,10.40
2019-05-17T17:58:33.055Z,12.10
2019-05-17T18:00:54.451Z,10.82
2019-05-17T18:03:15.839Z,10.55
2019-05-17T18:05:37.142Z,11.00
2019-05-17T18:07:58.445Z,11.35
2019-05-17T18:10:31.174Z,10.80
2019-05-17T18:12:53.035Z,11.48
2019-05-17T18:15:14.687Z,10.80
2019-05-17T18:17:39.347Z,11.83
2019-05-17T18:19:59.450Z,12.43
2019-05-17T18:22:20.852Z,11.30
2019-05-17T18:24:42.124Z,12.70
2019-05-17T18:27:03.643Z,12.23
2019-05-17T18:29:25.445Z,13.32
2019-05-17T18:31:46.970Z,12.00
2019-05-17T18:34:08.256Z,12.33
2019-05-17T18:36:29.846Z,12.45
2019-05-17T18:38:51.723Z,11.78
2019-05-17T18:41:13.551Z,13.53
2019-05-17T18:43:34.929Z,13.03
2019-05-17T18:45:59.215Z,13.18
2019-05-17T18:50:41.896Z,12.53
2019-05-17T18:53:23.247Z,13.88
2019-05-17T18:55:44.617Z,13.78
2019-05-17T18:58:06.013Z,13.75
2019-05-17T19:00:27.437Z,13.80
2019-05-17T19:02:49.602Z,14.58
2019-05-17T19:05:10.972Z,14.05
2019-05-17T19:07:32.416Z,13.38
2019-05-17T19:09:53.691Z,13.78
2019-05-17T19:12:15.295Z,13.75
2019-05-17T19:14:43.043Z,14.80
2019-05-17T19:17:00.026Z,14.93
2019-05-17T19:19:21.422Z,14.03
2019-05-17T19:21:43.363Z,15.70
2019-05-17T19:24:04.963Z,16.00
2019-05-17T19:26:26.541Z,15.50
2019-05-17T19:28:47.866Z,18.45
2019-05-17T19:31:09.461Z,18.42
2019-05-17T19:33:31.231Z,17.30
2019-05-17T19:36:12.500Z,18.07
2019-05-17T19:38:34.223Z,18.40
2019-05-17T19:40:55.538Z,16.62
2019-05-17T19:43:17.166Z,17.82
2019-05-17T19:45:38.563Z,17.48
2019-05-17T19:47:59.938Z,16.75
2019-05-17T19:50:21.483Z,17.52
2019-05-17T19:52:43.143Z,16.82
2019-05-17T19:55:04.655Z,16.12
2019-05-17T19:57:25.965Z,16.87
2019-05-17T19:59:47.351Z,16.70
2019-05-17T20:02:09.343Z,18.37
2019-05-17T20:04:30.597Z,19.62
2019-05-17T20:06:52.550Z,18.32
2019-05-17T20:09:14.099Z,17.37
2019-05-17T20:11:35.585Z,18.17
2019-05-17T20:13:57.178Z,18.45
2019-05-17T20:16:18.764Z,18.65
2019-05-17T20:18:40.033Z,21.17
2019-05-17T20:21:01.633Z,20.00
2019-05-17T20:23:23.307Z,18.60
2019-05-17T20:25:44.890Z,19.37
2019-05-17T20:28:06.276Z,18.50
2019-05-17T20:30:27.958Z,19.75
2019-05-17T20:32:49.420Z,19.98
2019-05-17T20:35:11.043Z,20.27
2019-05-17T20:37:32.813Z,22.02
2019-05-17T20:39:54.303Z,21.23
2019-05-17T20:42:15.810Z,21.27
2019-05-17T20:45:08.882Z,21.52
2019-05-17T20:47:31.123Z,20.68
2019-05-17T20:49:52.528Z,21.27
2019-05-17T20:52:14.933Z,19.50
2019-05-17T20:54:36.310Z,19.85
2019-05-17T20:56:58.095Z,18.90
2019-05-17T20:59:19.721Z,19.45
2019-05-17T21:01:41.126Z,19.17
2019-05-17T21:04:03.159Z,19.37
2019-05-17T21:06:24.685Z,19.82
2019-05-17T21:08:46.798Z,21.02
2019-05-17T21:11:08.208Z,21.00
2019-05-17T21:13:29.653Z,19.05
2019-05-17T21:15:51.756Z,20.00
2019-05-17T21:18:13.237Z,21.15
2019-05-17T21:20:34.553Z,22.42
2019-05-17T21:22:56.507Z,19.00
2019-05-17T21:25:32.191Z,21.55
2019-05-17T21:27:53.609Z,21.35
2019-05-17T21:30:15.498Z,20.17
2019-05-17T21:32:37.357Z,21.15
2019-05-17T21:34:59.080Z,18.98
2019-05-17T21:37:20.710Z,18.90
2019-05-17T21:39:42.762Z,21.37
2019-05-17T21:42:04.691Z,19.77
2019-05-17T21:44:27.200Z,20.48
2019-05-17T21:47:03.860Z,21.97
2019-05-17T21:49:12.112Z,22.17
2019-05-17T21:51:33.691Z,19.62
2019-05-17T21:53:55.932Z,20.12
2019-05-17T21:56:17.599Z,21.40
2019-05-17T21:58:40.000Z,20.70
2019-05-17T22:01:22.045Z,21.40
2019-05-17T22:03:43.437Z,20.88
2019-05-17T22:06:04.818Z,21.48
2019-05-17T22:08:26.368Z,21.85
2019-05-17T22:10:49.010Z,20.68
2019-05-17T22:13:10.395Z,20.05
2019-05-17T22:15:31.940Z,19.87
2019-05-17T22:17:53.340Z,20.90
2019-05-17T22:20:14.597Z,19.62
2019-05-17T22:22:36.154Z,21.07
2019-05-17T22:24:57.542Z,19.40
2019-05-17T22:27:19.051Z,20.12
2019-05-17T22:29:41.178Z,19.90
2019-05-17T22:32:02.870Z,20.77
2019-05-17T22:34:24.157Z,21.30
2019-05-17T22:36:45.476Z,19.17
2019-05-17T22:39:26.614Z,19.45
2019-05-17T22:41:48.133Z,19.98
2019-05-17T22:44:09.521Z,20.82
2019-05-17T22:46:36.238Z,21.52
2019-05-17T22:48:54.055Z,21.23
2019-05-17T22:51:15.451Z,21.00
2019-05-17T22:53:37.452Z,21.33
2019-05-17T22:55:58.891Z,19.45
2019-05-17T22:58:20.694Z,20.97
2019-05-17T23:00:42.269Z,21.97
2019-05-17T23:03:03.697Z,20.65
2019-05-17T23:05:26.237Z,21.45
2019-05-17T23:07:48.093Z,20.35
2019-05-17T23:10:09.612Z,18.85
2019-05-17T23:12:31.008Z,21.68
2019-05-17T23:14:52.495Z,22.60
2019-05-17T23:17:13.801Z,20.82
2019-05-17T23:19:35.284Z,23.00
2019-05-17T23:21:56.575Z,22.10
2019-05-17T23:24:18.000Z,21.68
2019-05-17T23:26:39.476Z,22.10
2019-05-17T23:29:00.789Z,24.18
2019-05-17T23:31:22.161Z,23.73
2019-05-17T23:33:43.537Z,23.98
2019-05-17T23:36:04.944Z,22.50
2019-05-17T23:38:26.265Z,23.10
2019-05-17T23:40:47.641Z,21.20
2019-05-17T23:43:09.221Z,23.38
2019-05-17T23:45:30.860Z,22.40
2019-05-17T23:47:52.345Z,21.65
2019-05-17T23:50:15.037Z,22.17
2019-05-17T23:52:36.597Z,22.48
2019-05-17T23:54:57.889Z,23.00
2019-05-17T23:57:19.287Z,22.07
2019-05-17T23:59:41.354Z,24.60
